This is the latest recevied weather packets stored in our database for station/object KY0TEQ-13. If no packets are shown the sender has not sent any weather packets the latest 10 day(s).
| Time | Temp. | Humidity | Pressure | Rain* | Wind** | Luminosity | Snow |
|---|---|---|---|---|---|---|---|
| 1777533156 | 4.44° C | 44% | 1301.2 hPa | 0 mm | - | 0 W/m² | - |
| 1777532854 | 3.89° C | 47% | 1301.3 hPa | 0 mm | - | 0 W/m² | - |
| 1777532550 | 4.44° C | 46% | 1301.1 hPa | 0 mm | - | 0 W/m² | - |
| 1777532246 | 5° C | 43% | 1301.2 hPa | 0 mm | - | 0 W/m² | - |
| 1777531943 | 4.44° C | 45% | 1301.2 hPa | 0 mm | - | 0 W/m² | - |
| 1777531633 | 6.11° C | 40% | 1301.1 hPa | 0 mm | - | 0 W/m² | - |
| 1777531331 | 6.11° C | 40% | 1301.2 hPa | 0 mm | - | 0 W/m² | - |
| 1777531028 | 6.11° C | 39% | 1301.3 hPa | 0 mm | - | 0 W/m² | - |
| 1777530725 | 6.11° C | 39% | 1301 hPa | 0 mm | - | 0 W/m² | - |
| 1777530423 | 5.56° C | 42% | 1301.1 hPa | 0 mm | - | 0 W/m² | - |
| 1777530118 | 4.44° C | 44% | 1301.3 hPa | 0 mm | - | 0 W/m² | - |
| 1777529816 | 4.44° C | 43% | 1301.2 hPa | 0 mm | - | 0 W/m² | - |
| 1777529512 | 3.89° C | 45% | 1301.3 hPa | 0 mm | - | 0 W/m² | - |
| 1777529210 | 5° C | 44% | 1301.2 hPa | 0 mm | - | 0 W/m² | - |
| 1777528905 | 4.44° C | 44% | 1301.5 hPa | 0 mm | - | 0 W/m² | - |
| 1777528602 | 6.11° C | 39% | 1301.5 hPa | 0 mm | - | 0 W/m² | - |
| 1777528299 | 4.44° C | 42% | 1301.5 hPa | 0 mm | - | 0 W/m² | - |
| 1777527998 | 5° C | 42% | 1301.5 hPa | 0 mm | - | 0 W/m² | - |
| 1777527693 | 5° C | 40% | 1301.7 hPa | 0 mm | - | 0 W/m² | - |
| 1777527388 | 3.89° C | 42% | 1301.5 hPa | 0 mm | - | 0 W/m² | - |
| 1777527084 | 4.44° C | 43% | 1301.6 hPa | 0 mm | - | 0 W/m² | - |
| 1777526780 | 6.67° C | 36% | 1301.3 hPa | 0 mm | - | 0 W/m² | - |
| 1777526475 | 5.56° C | 38% | 1301.6 hPa | 0 mm | - | 0 W/m² | - |
| 1777526171 | 5.56° C | 38% | 1301.5 hPa | 0 mm | - | 0 W/m² | - |
| 1777525867 | 5.56° C | 38% | 1301.8 hPa | 0 mm | - | 0 W/m² | - |
* Rain latest hour (hover to see other rain measurements)
** Current wind speed in m/s (hover to see current wind gust speed)